createdAt,value
2023-02-02T00:01:33.648Z,8.10
2023-02-02T00:04:01.895Z,6.90
2023-02-02T00:06:30.802Z,7.20
2023-02-02T00:09:01.329Z,7.90
2023-02-02T00:11:29.590Z,7.40
2023-02-02T00:13:57.967Z,7.20
2023-02-02T00:16:27.184Z,6.30
2023-02-02T00:18:57.572Z,6.30
2023-02-02T00:21:25.894Z,6.50
2023-02-02T00:23:54.075Z,6.40
2023-02-02T00:26:22.153Z,6.70
2023-02-02T00:28:50.547Z,5.60
2023-02-02T00:31:18.864Z,5.70
2023-02-02T00:33:47.953Z,5.70
2023-02-02T00:36:16.753Z,5.70
2023-02-02T00:38:46.248Z,6.40
2023-02-02T00:41:14.940Z,6.10
2023-02-02T00:43:44.163Z,5.50
2023-02-02T00:46:15.218Z,5.60
2023-02-02T00:48:43.375Z,5.50
2023-02-02T00:51:11.875Z,6.20
2023-02-02T00:53:40.025Z,6.50
2023-02-02T00:56:08.124Z,5.80
2023-02-02T00:58:36.512Z,6.00
2023-02-02T01:01:05.266Z,6.30
2023-02-02T01:03:33.917Z,6.40
2023-02-02T01:06:02.190Z,6.00
2023-02-02T01:08:30.897Z,5.70
2023-02-02T01:11:02.153Z,6.30
2023-02-02T01:13:31.343Z,6.00
2023-02-02T01:16:00.453Z,6.20
2023-02-02T01:18:28.951Z,5.80
2023-02-02T01:21:08.499Z,6.30
2023-02-02T01:23:37.395Z,6.40
2023-02-02T01:26:08.063Z,6.70
2023-02-02T01:28:37.028Z,6.40
2023-02-02T01:31:07.444Z,6.70
2023-02-02T01:33:36.175Z,6.60
2023-02-02T01:36:07.093Z,6.30
2023-02-02T01:38:36.828Z,6.00
2023-02-02T01:41:05.528Z,7.80
2023-02-02T01:43:43.337Z,7.10
2023-02-02T01:46:22.665Z,6.60
2023-02-02T01:49:14.196Z,6.30
2023-02-02T01:51:58.167Z,6.60
2023-02-02T01:54:48.299Z,6.40
2023-02-02T01:57:30.809Z,6.10
2023-02-02T02:00:00.208Z,7.20
2023-02-02T02:02:30.363Z,6.70
2023-02-02T02:05:00.346Z,6.10
2023-02-02T02:07:28.415Z,6.50
2023-02-02T02:09:56.824Z,7.30
2023-02-02T02:12:25.312Z,6.90
2023-02-02T02:15:12.084Z,6.20
2023-02-02T02:17:50.133Z,6.30
2023-02-02T02:21:05.794Z,6.60
2023-02-02T02:24:18.809Z,4.50
2023-02-02T02:26:51.774Z,6.70
2023-02-02T02:29:54.271Z,5.40
2023-02-02T02:32:52.941Z,6.90
2023-02-02T02:35:26.583Z,6.60
2023-02-02T02:38:07.030Z,6.70
2023-02-02T02:40:36.834Z,6.20
2023-02-02T02:43:27.430Z,6.20
2023-02-02T02:45:55.826Z,6.80
2023-02-02T02:48:24.196Z,5.60
2023-02-02T02:50:52.345Z,6.20
2023-02-02T02:53:22.128Z,6.40
2023-02-02T02:56:32.355Z,6.60
2023-02-02T02:59:13.335Z,6.60
2023-02-02T03:01:57.611Z,7.10
2023-02-02T03:04:44.419Z,6.50
2023-02-02T03:07:22.133Z,7.00
2023-02-02T03:09:50.491Z,7.00
2023-02-02T03:12:19.632Z,6.80
2023-02-02T03:14:47.905Z,6.80
2023-02-02T03:17:16.100Z,6.50
2023-02-02T03:19:44.791Z,7.60
2023-02-02T03:22:13.081Z,6.70
2023-02-02T03:24:41.437Z,6.40
2023-02-02T03:27:09.652Z,7.80
2023-02-02T03:29:38.410Z,9.10
2023-02-02T03:32:07.372Z,8.70
2023-02-02T03:34:35.712Z,8.80
2023-02-02T03:37:03.787Z,8.00
2023-02-02T03:39:32.479Z,7.50
2023-02-02T03:42:00.909Z,8.40
2023-02-02T03:44:29.190Z,8.10
2023-02-02T03:46:57.584Z,7.00
2023-02-02T03:49:25.635Z,8.90
2023-02-02T03:51:53.853Z,7.00
2023-02-02T03:54:22.038Z,8.20
2023-02-02T03:56:50.377Z,8.10
2023-02-02T03:59:24.057Z,7.90
2023-02-02T04:01:54.311Z,5.30
2023-02-02T04:04:22.616Z,8.00
2023-02-02T04:06:51.411Z,7.40
2023-02-02T04:09:22.975Z,7.50
2023-02-02T04:11:51.399Z,7.50
2023-02-02T04:14:21.297Z,7.30
2023-02-02T04:16:50.332Z,6.40
2023-02-02T04:19:21.363Z,7.70
2023-02-02T04:21:55.983Z,6.50
2023-02-02T04:24:25.772Z,7.60
2023-02-02T04:26:56.025Z,6.10
2023-02-02T04:29:26.611Z,6.50
2023-02-02T04:31:55.120Z,6.80
2023-02-02T04:34:23.223Z,8.50
2023-02-02T04:36:52.626Z,8.70
2023-02-02T04:39:20.856Z,7.90
2023-02-02T04:41:49.075Z,8.00
2023-02-02T04:44:17.418Z,7.90
2023-02-02T04:49:37.832Z,9.40
2023-02-02T04:52:06.134Z,9.00
2023-02-02T04:54:35.974Z,8.90
2023-02-02T04:57:04.258Z,8.10
2023-02-02T04:59:39.853Z,7.70
2023-02-02T05:02:17.018Z,7.90
2023-02-02T05:04:46.336Z,6.90
2023-02-02T05:07:15.041Z,8.20
2023-02-02T05:09:46.643Z,7.70
2023-02-02T05:12:16.384Z,7.30
2023-02-02T05:14:44.716Z,8.00
2023-02-02T05:17:13.073Z,7.80
2023-02-02T05:19:42.775Z,8.40
2023-02-02T05:22:12.119Z,9.10
2023-02-02T05:24:40.234Z,8.10
2023-02-02T05:27:08.502Z,9.10
2023-02-02T05:29:36.801Z,9.90
2023-02-02T05:32:05.092Z,10.30
2023-02-02T05:34:35.119Z,9.90
2023-02-02T05:37:04.351Z,10.70
2023-02-02T05:39:32.715Z,10.70
2023-02-02T05:42:00.835Z,10.60
2023-02-02T05:44:29.300Z,10.00
2023-02-02T05:46:58.496Z,8.90
2023-02-02T05:49:26.672Z,8.80
2023-02-02T05:51:57.234Z,8.10
2023-02-02T05:54:25.416Z,7.90
2023-02-02T05:56:54.854Z,8.60
2023-02-02T05:59:23.334Z,9.00
2023-02-02T06:01:51.707Z,8.00
2023-02-02T06:04:19.918Z,9.30
2023-02-02T06:06:48.138Z,8.10
2023-02-02T06:09:16.379Z,8.30
2023-02-02T06:11:45.419Z,7.80
2023-02-02T06:14:14.494Z,8.70
2023-02-02T06:16:44.108Z,8.80
2023-02-02T06:19:12.360Z,9.00
2023-02-02T06:21:41.105Z,8.80
2023-02-02T06:24:09.383Z,9.00
2023-02-02T06:26:38.298Z,10.10
2023-02-02T06:29:07.083Z,10.30
2023-02-02T06:31:36.689Z,11.00
2023-02-02T06:34:05.084Z,12.30
2023-02-02T06:36:33.477Z,12.40
2023-02-02T06:39:04.960Z,11.40
2023-02-02T06:41:34.962Z,9.80
2023-02-02T06:44:03.180Z,10.60
2023-02-02T06:46:31.782Z,10.50
2023-02-02T06:49:00.158Z,10.40
2023-02-02T06:51:28.428Z,10.90
2023-02-02T06:53:59.395Z,10.60
2023-02-02T06:56:27.706Z,11.00
2023-02-02T06:58:55.794Z,10.70
2023-02-02T07:01:23.920Z,10.80
2023-02-02T07:03:52.098Z,11.20
2023-02-02T07:06:24.747Z,11.30
2023-02-02T07:09:01.040Z,12.10
2023-02-02T07:11:34.716Z,12.00
2023-02-02T07:14:04.462Z,13.00
2023-02-02T07:16:32.652Z,12.00
2023-02-02T07:19:01.468Z,14.50
2023-02-02T07:21:35.740Z,13.90
2023-02-02T07:24:04.915Z,14.00
2023-02-02T07:26:34.959Z,13.50
2023-02-02T07:29:04.602Z,14.20
2023-02-02T07:31:36.799Z,13.90
2023-02-02T07:34:06.184Z,12.60
2023-02-02T07:36:34.521Z,12.90
2023-02-02T07:39:05.173Z,13.90
2023-02-02T07:41:36.858Z,14.00
2023-02-02T07:44:05.497Z,15.50
2023-02-02T07:46:36.169Z,15.50
2023-02-02T07:49:06.831Z,14.50
2023-02-02T07:51:37.922Z,14.20
2023-02-02T07:54:07.135Z,14.30
2023-02-02T07:56:37.853Z,12.80
2023-02-02T07:59:06.444Z,12.20
2023-02-02T08:01:35.276Z,12.30
2023-02-02T08:04:03.801Z,12.40
2023-02-02T08:06:34.618Z,11.60
2023-02-02T08:09:03.823Z,12.70
2023-02-02T08:11:32.576Z,11.70
2023-02-02T08:14:02.197Z,12.60
2023-02-02T08:16:32.831Z,12.50
2023-02-02T08:19:01.275Z,13.20
2023-02-02T08:21:29.621Z,12.40
2023-02-02T08:23:57.738Z,11.00
2023-02-02T08:26:27.458Z,11.20
2023-02-02T08:28:57.485Z,10.90
2023-02-02T08:31:31.661Z,11.50
2023-02-02T08:34:04.095Z,12.80
2023-02-02T08:36:41.667Z,14.00
2023-02-02T08:39:12.470Z,11.50
2023-02-02T08:41:40.999Z,11.10
2023-02-02T08:47:03.731Z,13.30
2023-02-02T08:49:37.217Z,12.10
2023-02-02T08:52:10.324Z,13.00
2023-02-02T08:54:41.421Z,12.80
2023-02-02T08:57:13.441Z,12.50
2023-02-02T08:59:41.778Z,12.50
2023-02-02T09:02:13.913Z,12.10
2023-02-02T09:07:37.927Z,10.10
2023-02-02T09:10:06.438Z,12.10
2023-02-02T09:12:35.130Z,28.20
2023-02-02T09:15:06.222Z,13.30
2023-02-02T09:17:35.544Z,10.80
2023-02-02T09:20:04.963Z,11.00
2023-02-02T09:22:36.550Z,10.80
2023-02-02T09:25:14.377Z,10.90
2023-02-02T09:27:43.034Z,10.50
2023-02-02T09:30:12.127Z,13.70
2023-02-02T09:32:41.884Z,10.90
2023-02-02T09:35:18.172Z,10.10
2023-02-02T09:37:57.812Z,10.90
2023-02-02T09:40:43.989Z,11.50
2023-02-02T09:44:06.598Z,10.70
2023-02-02T09:47:13.102Z,8.80
2023-02-02T09:49:47.135Z,10.40
2023-02-02T09:52:44.654Z,7.50
2023-02-02T09:55:36.053Z,9.80
2023-02-02T09:58:10.744Z,9.70
2023-02-02T10:03:42.992Z,9.20
2023-02-02T10:06:26.743Z,9.80
2023-02-02T10:09:02.166Z,10.20
2023-02-02T10:11:45.820Z,7.00
2023-02-02T10:14:22.740Z,10.00
2023-02-02T10:16:55.705Z,11.80
2023-02-02T10:19:29.284Z,10.60
2023-02-02T10:22:07.500Z,10.40
2023-02-02T10:24:37.411Z,9.20
2023-02-02T10:27:08.948Z,9.90
2023-02-02T10:29:53.853Z,9.70
2023-02-02T10:32:29.150Z,9.10
2023-02-02T10:35:13.529Z,9.70
2023-02-02T10:38:02.536Z,9.50
2023-02-02T10:40:49.518Z,9.60
2023-02-02T10:43:48.554Z,8.70
2023-02-02T10:46:25.648Z,8.10
2023-02-02T10:49:16.721Z,9.30
2023-02-02T10:52:18.640Z,15.50
2023-02-02T10:54:59.133Z,9.90
2023-02-02T11:00:51.529Z,8.50
2023-02-02T11:03:26.256Z,8.10
2023-02-02T11:06:21.270Z,9.00
2023-02-02T11:09:12.364Z,7.60
2023-02-02T11:11:43.445Z,7.20
2023-02-02T11:14:30.498Z,8.50
2023-02-02T11:19:55.926Z,9.30
2023-02-02T11:22:51.650Z,8.70
2023-02-02T11:25:27.576Z,8.70
2023-02-02T11:27:56.058Z,8.50
2023-02-02T11:30:26.699Z,12.90
2023-02-02T11:33:01.309Z,8.70
2023-02-02T11:38:24.669Z,8.90
2023-02-02T11:41:09.213Z,8.90
2023-02-02T11:43:44.557Z,7.50
2023-02-02T11:46:35.010Z,8.90
2023-02-02T11:49:18.827Z,8.40
2023-02-02T11:52:07.846Z,8.40
2023-02-02T11:54:37.566Z,7.30
2023-02-02T11:57:08.732Z,7.60
2023-02-02T11:59:43.821Z,7.80
2023-02-02T12:02:28.558Z,7.60
2023-02-02T12:05:13.982Z,6.90
2023-02-02T12:07:43.366Z,7.30
2023-02-02T12:10:26.302Z,7.30
2023-02-02T12:13:05.638Z,7.00
2023-02-02T12:16:09.491Z,8.80
2023-02-02T12:19:06.831Z,11.60
2023-02-02T12:22:34.823Z,10.70
2023-02-02T12:25:41.974Z,8.90
2023-02-02T12:28:41.463Z,8.60
2023-02-02T12:31:22.055Z,8.20
2023-02-02T12:34:10.750Z,7.40
2023-02-02T12:36:55.834Z,7.10
2023-02-02T12:39:34.603Z,7.50
2023-02-02T12:42:21.328Z,6.20
2023-02-02T12:45:11.514Z,8.40
2023-02-02T12:48:14.107Z,6.90
2023-02-02T12:50:57.606Z,7.20
2023-02-02T12:53:38.696Z,6.70
2023-02-02T12:56:25.208Z,8.30
2023-02-02T12:58:59.941Z,7.60
2023-02-02T13:04:22.104Z,10.70
2023-02-02T13:07:12.547Z,7.40
2023-02-02T13:10:04.789Z,10.70
2023-02-02T13:12:35.277Z,7.40
2023-02-02T13:15:07.939Z,8.30
2023-02-02T13:17:43.090Z,9.10
2023-02-02T13:20:29.845Z,8.00
2023-02-02T13:23:00.479Z,8.50
2023-02-02T13:25:35.047Z,8.30
2023-02-02T13:28:03.974Z,8.80
2023-02-02T13:30:49.331Z,8.30
2023-02-02T13:33:32.914Z,10.00
2023-02-02T13:38:42.361Z,8.90
2023-02-02T13:41:18.631Z,10.70
2023-02-02T13:46:51.987Z,9.10
2023-02-02T13:49:36.414Z,9.60
2023-02-02T13:52:39.741Z,9.20
2023-02-02T13:55:46.263Z,8.80
2023-02-02T13:58:28.887Z,8.20
2023-02-02T14:01:01.358Z,9.20
2023-02-02T14:03:49.477Z,10.50
2023-02-02T14:06:23.551Z,10.30
2023-02-02T14:08:53.064Z,9.50
2023-02-02T14:12:01.628Z,9.50
2023-02-02T14:14:33.153Z,10.40
2023-02-02T14:17:06.181Z,13.10
2023-02-02T14:19:43.892Z,12.50
2023-02-02T14:23:06.389Z,11.40
2023-02-02T14:25:47.099Z,12.50
2023-02-02T14:28:40.236Z,12.10
2023-02-02T14:31:52.854Z,11.90
2023-02-02T14:34:42.105Z,11.40
2023-02-02T14:37:28.618Z,11.00
2023-02-02T14:40:02.684Z,11.40
2023-02-02T14:43:27.844Z,13.70
2023-02-02T14:46:14.949Z,12.20
2023-02-02T14:48:47.519Z,11.90
2023-02-02T14:51:16.238Z,13.40
2023-02-02T14:53:55.215Z,13.20
2023-02-02T14:56:49.579Z,12.70
2023-02-02T14:59:20.373Z,13.50
2023-02-02T15:02:17.235Z,12.90
2023-02-02T15:04:51.563Z,11.70
2023-02-02T15:07:22.679Z,12.70
2023-02-02T15:09:59.450Z,12.60
2023-02-02T15:12:48.312Z,12.30
2023-02-02T15:15:23.849Z,11.70
2023-02-02T15:18:00.891Z,11.20
2023-02-02T15:20:32.673Z,13.60
2023-02-02T15:23:12.313Z,11.70
2023-02-02T15:26:03.840Z,12.70
2023-02-02T15:28:44.594Z,13.50
2023-02-02T15:31:20.559Z,12.40
2023-02-02T15:33:56.233Z,12.90
2023-02-02T15:36:31.390Z,12.50
2023-02-02T15:39:09.409Z,13.30
2023-02-02T15:41:38.267Z,12.50
2023-02-02T15:44:18.970Z,11.90
2023-02-02T15:46:47.349Z,12.80
2023-02-02T15:49:34.615Z,13.50
2023-02-02T15:52:11.770Z,14.20
2023-02-02T15:54:56.002Z,14.70
2023-02-02T15:57:30.948Z,14.80
2023-02-02T16:00:00.425Z,13.80
2023-02-02T16:02:31.587Z,15.40
2023-02-02T16:04:59.644Z,15.50
2023-02-02T16:07:34.031Z,16.10
2023-02-02T16:10:05.931Z,16.00
2023-02-02T16:12:34.567Z,15.80
2023-02-02T16:15:03.690Z,16.20
2023-02-02T16:17:33.269Z,16.00
2023-02-02T16:20:14.746Z,14.30
2023-02-02T16:22:45.185Z,14.10
2023-02-02T16:25:16.983Z,14.60
2023-02-02T16:27:46.898Z,13.90
2023-02-02T16:30:35.823Z,14.40
2023-02-02T16:33:36.878Z,14.60
2023-02-02T16:36:26.369Z,14.90
2023-02-02T16:38:57.833Z,14.90
2023-02-02T16:41:28.315Z,14.50
2023-02-02T16:43:56.731Z,14.00
2023-02-02T16:46:54.513Z,15.40
2023-02-02T16:49:23.883Z,15.00
2023-02-02T16:52:09.034Z,14.50
2023-02-02T16:54:37.598Z,13.30
2023-02-02T16:57:06.411Z,13.90
2023-02-02T16:59:35.546Z,14.20
2023-02-02T17:02:05.434Z,13.50
2023-02-02T17:04:34.483Z,13.80
2023-02-02T17:07:10.358Z,14.70
2023-02-02T17:09:42.298Z,14.40
2023-02-02T17:12:35.021Z,15.10
2023-02-02T17:15:25.534Z,16.50
2023-02-02T17:17:53.842Z,13.90
2023-02-02T17:20:22.584Z,13.60
2023-02-02T17:23:02.192Z,15.20
2023-02-02T17:25:36.345Z,15.50
2023-02-02T17:28:07.163Z,11.20
2023-02-02T17:30:35.616Z,15.30
2023-02-02T17:33:05.795Z,15.10
2023-02-02T17:35:47.564Z,14.10
2023-02-02T17:38:21.892Z,13.70
2023-02-02T17:40:51.353Z,15.40
2023-02-02T17:43:20.440Z,14.30
2023-02-02T17:45:49.413Z,14.50
2023-02-02T17:48:17.718Z,13.50
2023-02-02T17:50:46.200Z,16.30
2023-02-02T17:53:16.646Z,14.80
2023-02-02T17:55:49.928Z,14.80
2023-02-02T17:58:26.637Z,14.10
2023-02-02T18:01:02.372Z,15.30
2023-02-02T18:03:39.871Z,14.60
2023-02-02T18:06:14.725Z,13.80
2023-02-02T18:08:43.431Z,13.90
2023-02-02T18:11:12.855Z,13.80
2023-02-02T18:13:42.774Z,14.90
2023-02-02T18:16:11.367Z,15.20
2023-02-02T18:18:39.724Z,14.90
2023-02-02T18:21:10.713Z,15.30
2023-02-02T18:23:39.168Z,14.50
2023-02-02T18:26:18.252Z,14.30
2023-02-02T18:28:48.971Z,17.30
2023-02-02T18:31:20.998Z,14.80
2023-02-02T18:33:49.434Z,15.40
2023-02-02T18:36:20.040Z,15.20
2023-02-02T18:38:50.843Z,13.80
2023-02-02T18:41:19.790Z,13.80
2023-02-02T18:43:48.448Z,13.10
2023-02-02T18:46:16.800Z,13.80
2023-02-02T18:48:45.494Z,13.90
2023-02-02T18:51:18.308Z,13.40
2023-02-02T18:53:47.105Z,12.70
2023-02-02T18:56:15.703Z,13.10
2023-02-02T18:58:44.072Z,11.70
2023-02-02T19:01:14.236Z,12.30
2023-02-02T19:03:42.562Z,14.00
2023-02-02T19:06:29.497Z,14.40
2023-02-02T19:08:57.603Z,15.60
2023-02-02T19:11:28.145Z,14.20
2023-02-02T19:13:56.499Z,15.70
2023-02-02T19:16:26.766Z,14.70
2023-02-02T19:18:59.027Z,17.00
2023-02-02T19:21:29.615Z,16.50
2023-02-02T19:23:59.531Z,14.40
2023-02-02T19:26:28.262Z,15.50
2023-02-02T19:29:01.739Z,17.50
2023-02-02T19:31:29.927Z,16.20
2023-02-02T19:33:58.378Z,14.70
2023-02-02T19:36:27.895Z,15.80
2023-02-02T19:38:58.938Z,16.30
2023-02-02T19:41:27.515Z,15.90
2023-02-02T19:43:58.390Z,15.20
2023-02-02T19:46:27.384Z,15.60
2023-02-02T19:49:11.791Z,14.40
2023-02-02T19:51:47.341Z,15.30
2023-02-02T19:54:29.791Z,14.40
2023-02-02T19:57:07.851Z,15.10
2023-02-02T19:59:36.540Z,14.90
2023-02-02T20:02:17.112Z,13.60
2023-02-02T20:04:45.192Z,14.60
2023-02-02T20:07:14.139Z,13.90
2023-02-02T20:09:43.937Z,14.80
2023-02-02T20:12:26.932Z,15.10
2023-02-02T20:14:56.457Z,15.40
2023-02-02T20:17:31.941Z,14.80
2023-02-02T20:20:00.044Z,14.00
2023-02-02T20:22:28.755Z,14.70
2023-02-02T20:24:57.887Z,15.20
2023-02-02T20:27:27.123Z,15.70
2023-02-02T20:29:57.978Z,16.50
2023-02-02T20:32:30.456Z,16.70
2023-02-02T20:34:59.182Z,16.90
2023-02-02T20:37:29.388Z,16.60
2023-02-02T20:40:02.646Z,15.40
2023-02-02T20:42:31.128Z,16.60
2023-02-02T20:44:59.790Z,16.10
2023-02-02T20:47:28.227Z,17.60
2023-02-02T20:49:57.629Z,16.30
2023-02-02T20:52:26.504Z,14.40
2023-02-02T20:54:54.985Z,14.30
2023-02-02T20:57:24.327Z,13.60
2023-02-02T20:59:57.609Z,12.70
2023-02-02T21:02:26.306Z,12.80
2023-02-02T21:04:54.758Z,11.40
2023-02-02T21:07:23.953Z,12.90
2023-02-02T21:09:55.276Z,13.10
2023-02-02T21:12:25.752Z,13.30
2023-02-02T21:14:54.619Z,12.90
2023-02-02T21:17:24.280Z,13.40
2023-02-02T21:19:52.393Z,13.30
2023-02-02T21:22:20.434Z,13.60
2023-02-02T21:24:48.529Z,14.60
2023-02-02T21:27:16.607Z,13.90
2023-02-02T21:29:44.829Z,14.40
2023-02-02T21:32:12.964Z,13.40
2023-02-02T21:34:41.298Z,14.60
2023-02-02T21:37:14.155Z,15.20
2023-02-02T21:39:48.234Z,14.80
2023-02-02T21:42:18.431Z,14.10
2023-02-02T21:44:53.842Z,13.30
2023-02-02T21:47:26.800Z,14.30
2023-02-02T21:49:56.200Z,15.40
2023-02-02T21:52:24.501Z,14.00
2023-02-02T21:54:53.948Z,15.10
2023-02-02T21:57:37.053Z,15.60
2023-02-02T22:00:23.361Z,16.60
2023-02-02T22:02:53.558Z,15.00
2023-02-02T22:05:34.030Z,15.50
2023-02-02T22:08:18.661Z,14.70
2023-02-02T22:10:47.429Z,15.60
2023-02-02T22:13:17.497Z,14.70
2023-02-02T22:18:24.461Z,12.70
2023-02-02T22:20:56.599Z,13.90
2023-02-02T22:23:27.090Z,15.00
2023-02-02T22:25:56.180Z,12.80
2023-02-02T22:28:26.214Z,13.80
2023-02-02T22:30:56.174Z,14.90
2023-02-02T22:33:26.452Z,13.40
2023-02-02T22:35:54.720Z,14.30
2023-02-02T22:38:24.503Z,12.50
2023-02-02T22:40:56.414Z,13.30
2023-02-02T22:43:24.890Z,13.00
2023-02-02T22:45:55.058Z,12.80
2023-02-02T22:48:23.238Z,12.40
2023-02-02T22:50:51.495Z,12.70
2023-02-02T22:53:19.875Z,13.30
2023-02-02T22:55:48.161Z,12.30
2023-02-02T22:58:16.314Z,13.00
2023-02-02T23:00:44.358Z,12.30
2023-02-02T23:03:12.524Z,12.40
2023-02-02T23:05:41.845Z,12.30
2023-02-02T23:08:10.475Z,11.80
2023-02-02T23:10:58.453Z,11.90
2023-02-02T23:13:27.191Z,12.00
2023-02-02T23:15:57.135Z,13.20
2023-02-02T23:18:25.615Z,12.60
2023-02-02T23:20:53.934Z,14.20
2023-02-02T23:23:23.094Z,15.90
2023-02-02T23:25:51.413Z,15.30
2023-02-02T23:28:19.542Z,15.40
2023-02-02T23:30:48.319Z,15.10
2023-02-02T23:33:16.372Z,16.20
2023-02-02T23:35:44.603Z,14.40
2023-02-02T23:38:13.999Z,15.20
2023-02-02T23:40:42.063Z,15.50
2023-02-02T23:43:10.533Z,13.80
2023-02-02T23:45:40.417Z,14.20
2023-02-02T23:48:09.212Z,13.70
2023-02-02T23:50:40.411Z,14.20
2023-02-02T23:53:09.131Z,13.40
2023-02-02T23:55:38.040Z,15.10
2023-02-02T23:58:06.377Z,13.40
